Time;durP1;ratioP1;P1;durP2;ratioP2;P2;SDS_P1;SDS_P2;PMS_P1;PMS_P2;Temp;Humidity;BMP_temperature;BMP_pressure;BME280_temperature;BME280_humidity;BME280_pressure;Samples;Min_cycle;Max_cycle;Signal;HPM_P1;HPM_P2
2023/06/20 00:00:32;;;;;;;4.90;4.10;;;22.50;87.00;;;;;;4989772;28;20217;-62
2023/06/20 00:02:59;;;;;;;10.02;4.10;;;22.40;86.30;;;;;;4985335;28;20283;-63
2023/06/20 00:05:26;;;;;;;7.20;5.00;;;22.40;88.10;;;;;;4988173;28;20231;-64
2023/06/20 00:07:54;;;;;;;6.15;4.28;;;22.30;87.40;;;;;;4986595;28;20219;-62
2023/06/20 00:10:21;;;;;;;6.28;4.18;;;22.20;87.60;;;;;;4988266;28;20194;-62
2023/06/20 00:12:48;;;;;;;5.68;4.57;;;22.20;90.30;;;;;;4988169;28;20597;-62
2023/06/20 00:15:15;;;;;;;4.82;4.25;;;22.00;89.70;;;;;;4989104;28;20217;-62
2023/06/20 00:17:42;;;;;;;5.63;4.30;;;21.90;87.40;;;;;;4984052;28;20306;-62
2023/06/20 00:20:09;;;;;;;8.35;4.07;;;21.90;90.40;;;;;;5001019;28;20285;-62
2023/06/20 00:22:37;;;;;;;7.03;4.63;;;21.90;90.80;;;;;;4987320;28;20189;-63
2023/06/20 00:25:04;;;;;;;4.60;3.83;;;21.80;89.70;;;;;;4989473;28;20194;-63
2023/06/20 00:27:31;;;;;;;7.47;4.35;;;21.90;91.30;;;;;;4988293;28;20197;-64
2023/06/20 00:29:58;;;;;;;5.28;4.00;;;21.90;90.80;;;;;;4987607;28;20252;-63
2023/06/20 00:32:25;;;;;;;4.93;3.95;;;21.80;91.20;;;;;;4989393;28;20606;-63
2023/06/20 00:34:52;;;;;;;5.35;4.47;;;21.80;91.50;;;;;;4988022;28;20193;-63
2023/06/20 00:37:19;;;;;;;6.90;4.05;;;21.80;91.80;;;;;;4982075;28;20190;-63
2023/06/20 00:39:46;;;;;;;6.28;3.90;;;21.80;92.30;;;;;;4986983;28;20293;-63
2023/06/20 00:42:20;;;;;;;9.23;4.30;;;21.70;92.40;;;;;;4988753;28;20197;-70
2023/06/20 00:44:47;;;;;;;6.20;4.68;;;21.70;92.00;;;;;;4987395;28;20674;-69
2023/06/20 00:47:18;;;;;;;5.82;4.38;;;21.70;92.20;;;;;;4980985;28;20202;-71
2023/06/20 00:49:48;;;;;;;4.57;3.95;;;21.70;92.80;;;;;;4984115;28;20213;-70
2023/06/20 00:52:18;;;;;;;6.38;4.88;;;21.60;92.80;;;;;;4968017;28;20191;-70
2023/06/20 00:54:46;;;;;;;7.25;4.75;;;21.60;92.70;;;;;;5001024;28;20758;-70
2023/06/20 00:57:16;;;;;;;6.35;4.75;;;21.60;92.90;;;;;;4983876;28;20210;-73
2023/06/20 00:59:44;;;;;;;5.55;4.18;;;21.60;92.70;;;;;;4985612;28;20280;-71
2023/06/20 01:02:12;;;;;;;6.10;4.82;;;21.60;93.00;;;;;;4988560;28;20280;-70
2023/06/20 01:04:40;;;;;;;5.93;4.20;;;21.70;93.60;;;;;;4980535;28;20201;-70
2023/06/20 01:07:25;;;;;;;6.13;4.68;;;21.70;94.10;;;;;;5000854;28;20609;-71
2023/06/20 01:10:11;;;;;;;6.05;4.20;;;21.70;94.30;;;;;;4988153;28;20207;-70
2023/06/20 01:13:04;;;;;;;7.20;4.55;;;21.70;95.30;;;;;;4980056;28;20256;-70
2023/06/20 01:15:34;;;;;;;6.00;4.47;;;21.70;95.00;;;;;;4981841;28;20245;-70
2023/06/20 01:18:26;;;;;;;7.22;4.65;;;21.70;94.90;;;;;;4983643;28;20230;-70
2023/06/20 01:21:07;;;;;;;7.18;5.03;;;21.70;94.80;;;;;;4986291;28;20185;-71
2023/06/20 01:24:01;;;;;;;4.72;4.22;;;21.70;94.70;;;;;;4980550;28;20193;-69
2023/06/20 01:26:38;;;;;;;5.43;4.53;;;21.80;95.30;;;;;;4985662;28;20215;-69
2023/06/20 01:29:15;;;;;;;4.72;4.15;;;21.70;95.10;;;;;;4983590;28;20201;-69
2023/06/20 01:31:55;;;;;;;5.53;4.35;;;21.70;95.10;;;;;;4983315;28;20228;-70
2023/06/20 01:34:29;;;;;;;5.40;4.78;;;21.70;94.70;;;;;;4980560;28;20200;-69
2023/06/20 01:36:59;;;;;;;9.38;5.45;;;21.70;95.30;;;;;;4985573;28;20208;-69
2023/06/20 01:39:39;;;;;;;5.47;4.68;;;21.70;95.20;;;;;;4982151;28;20236;-68
2023/06/20 01:42:06;;;;;;;5.13;4.40;;;21.70;95.40;;;;;;4982327;28;20205;-68
2023/06/20 01:44:35;;;;;;;5.05;4.07;;;21.80;95.70;;;;;;5001212;28;20214;-69
2023/06/20 01:47:04;;;;;;;6.00;4.80;;;21.70;95.30;;;;;;4985097;28;20693;-68
2023/06/20 01:49:33;;;;;;;6.90;4.45;;;21.80;96.00;;;;;;4978715;28;20693;-68
2023/06/20 01:52:01;;;;;;;6.00;4.97;;;21.80;96.10;;;;;;4986761;28;20622;-69
2023/06/20 01:54:30;;;;;;;5.47;4.47;;;21.80;96.00;;;;;;4986179;28;20196;-69
2023/06/20 01:56:58;;;;;;;5.80;4.40;;;21.80;96.50;;;;;;4977171;28;20647;-69
2023/06/20 01:59:26;;;;;;;5.75;4.55;;;21.80;97.50;;;;;;4985835;28;20201;-69
2023/06/20 02:01:56;;;;;;;8.55;4.78;;;21.80;99.90;;;;;;4985600;28;20201;-68
2023/06/20 02:04:25;;;;;;;7.80;4.75;;;21.80;97.10;;;;;;4984299;28;20197;-70
2023/06/20 02:06:53;;;;;;;4.88;4.20;;;21.80;96.40;;;;;;4981490;28;20237;-69
2023/06/20 02:09:20;;;;;;;5.95;4.28;;;21.80;96.80;;;;;;4986091;28;20217;-69
2023/06/20 02:11:48;;;;;;;10.82;4.47;;;21.80;96.90;;;;;;4986452;28;20189;-69
2023/06/20 02:14:15;;;;;;;4.43;4.03;;;21.80;97.40;;;;;;4984957;28;20673;-71
2023/06/20 02:16:43;;;;;;;5.82;4.50;;;21.80;97.00;;;;;;4985856;28;20205;-71
2023/06/20 02:19:10;;;;;;;5.60;4.38;;;21.80;96.90;;;;;;4982370;28;20476;-72
2023/06/20 02:21:41;;;;;;;4.57;4.18;;;21.80;97.00;;;;;;4987261;28;20656;-72
2023/06/20 02:24:11;;;;;;;6.50;5.18;;;21.70;99.50;;;;;;4985647;28;20206;-71
2023/06/20 02:26:42;;;;;;;8.27;5.38;;;21.20;99.90;;;;;;4986821;28;20748;-71
2023/06/20 02:29:10;;;;;;;7.45;5.80;;;19.80;1.00;;;;;;4983338;28;20650;-69
2023/06/20 02:31:43;;;;;;;9.98;6.88;;;19.00;99.90;;;;;;4987728;28;20198;-70
2023/06/20 02:34:14;;;;;;;7.72;6.93;;;18.90;1.00;;;;;;4983452;28;20252;-70
2023/06/20 02:36:43;;;;;;;12.60;8.10;;;18.80;1.00;;;;;;4987880;28;20764;-69
2023/06/20 02:39:10;;;;;;;8.98;7.85;;;18.90;1.00;;;;;;4985122;28;20190;-70
2023/06/20 02:41:41;;;;;;;11.02;9.15;;;18.90;1.00;;;;;;4987106;28;20664;-71
2023/06/20 02:44:09;;;;;;;11.35;8.73;;;19.00;1.00;;;;;;4986837;28;20211;-70
2023/06/20 02:47:11;;;;;;;12.98;9.55;;;19.20;1.00;;;;;;4987418;28;20220;-71
2023/06/20 02:49:59;;;;;;;16.70;10.70;;;19.40;1.00;;;;;;4966866;28;20658;-71
2023/06/20 02:52:40;;;;;;;11.52;9.40;;;19.40;1.00;;;;;;4987949;28;20193;-68
2023/06/20 02:55:17;;;;;;;13.38;10.15;;;19.60;1.00;;;;;;4987323;28;20682;-70
2023/06/20 02:57:48;;;;;;;9.65;8.73;;;19.90;1.00;;;;;;4988613;28;20614;-70
2023/06/20 03:00:16;;;;;;;10.23;9.10;;;20.00;1.00;;;;;;4990812;28;20190;-71
2023/06/20 03:03:12;;;;;;;11.93;9.23;;;20.00;1.00;;;;;;4983623;28;20746;-72
2023/06/20 03:05:44;;;;;;;10.77;8.88;;;20.30;1.00;;;;;;5001297;28;20621;-71
2023/06/20 03:08:14;;;;;;;10.93;9.82;;;20.30;1.00;;;;;;4987783;28;20664;-70
2023/06/20 03:10:42;;;;;;;15.90;9.30;;;20.10;99.90;;;;;;4986800;28;20208;-71
2023/06/20 03:13:14;;;;;;;13.35;9.45;;;20.20;1.00;;;;;;4989621;28;20305;-70
2023/06/20 03:15:43;;;;;;;10.40;8.90;;;20.30;1.00;;;;;;4988307;28;20759;-71
2023/06/20 03:18:11;;;;;;;14.30;9.32;;;20.30;1.00;;;;;;4985058;28;20364;-70
2023/06/20 03:20:43;;;;;;;14.20;9.60;;;20.20;1.00;;;;;;4973918;28;20320;-71
2023/06/20 03:23:10;;;;;;;12.80;9.95;;;20.20;1.00;;;;;;4990969;28;20201;-71
2023/06/20 03:25:37;;;;;;;11.25;9.25;;;20.10;99.90;;;;;;4990349;28;20193;-71
2023/06/20 03:28:04;;;;;;;11.52;10.32;;;20.00;99.90;;;;;;4986781;28;20221;-71
2023/06/20 03:30:32;;;;;;;11.38;10.20;;;20.00;99.90;;;;;;4989544;28;20196;-71
2023/06/20 03:32:59;;;;;;;11.73;10.20;;;20.00;99.90;;;;;;4989401;28;20216;-70
2023/06/20 03:35:26;;;;;;;10.90;9.20;;;20.00;99.90;;;;;;4980332;28;20309;-71
2023/06/20 03:37:54;;;;;;;14.85;10.30;;;20.00;99.90;;;;;;4992126;28;20231;-71
2023/06/20 03:40:22;;;;;;;15.15;9.43;;;20.00;99.90;;;;;;4989407;28;20678;-69
2023/06/20 03:42:51;;;;;;;10.32;8.82;;;19.80;99.90;;;;;;4988791;28;20206;-70
2023/06/20 03:45:20;;;;;;;15.43;9.93;;;19.60;99.90;;;;;;4988474;28;20204;-70
2023/06/20 03:47:46;;;;;;;13.10;9.85;;;19.70;1.00;;;;;;4986273;28;20207;-69
2023/06/20 03:50:14;;;;;;;11.05;9.85;;;19.80;1.00;;;;;;4986888;28;20281;-70
2023/06/20 03:52:43;;;;;;;11.50;10.02;;;19.80;1.00;;;;;;4985647;28;20222;-69
2023/06/20 03:55:09;;;;;;;13.63;10.73;;;19.70;99.90;;;;;;4986844;28;20225;-69
2023/06/20 03:57:36;;;;;;;13.88;11.02;;;19.70;99.90;;;;;;4989745;28;20706;-67
2023/06/20 04:00:11;;;;;;;14.20;10.52;;;19.60;99.90;;;;;;4973175;28;20201;-69
2023/06/20 04:02:41;;;;;;;14.55;9.30;;;19.80;99.90;;;;;;4987130;28;20265;-67
2023/06/20 04:05:09;;;;;;;10.85;9.45;;;19.80;99.90;;;;;;4986235;28;20766;-68
2023/06/20 04:07:41;;;;;;;11.07;9.63;;;20.00;99.90;;;;;;4980073;28;20410;-70
2023/06/20 04:10:10;;;;;;;12.40;9.35;;;20.10;99.90;;;;;;4984364;28;20197;-69
2023/06/20 04:12:41;;;;;;;12.35;9.10;;;20.10;99.90;;;;;;4984822;28;20393;-68
2023/06/20 04:15:09;;;;;;;10.55;9.05;;;20.00;99.90;;;;;;4989267;28;20216;-69
2023/06/20 04:17:40;;;;;;;10.07;9.07;;;19.80;99.90;;;;;;4987950;28;20205;-70
2023/06/20 04:20:13;;;;;;;11.13;9.45;;;19.80;99.90;;;;;;4987690;28;20221;-69
2023/06/20 04:22:44;;;;;;;14.15;10.00;;;19.90;99.90;;;;;;4969833;28;20202;-67
2023/06/20 04:25:16;;;;;;;10.63;8.80;;;19.90;99.90;;;;;;4987952;28;20193;-71
2023/06/20 04:27:44;;;;;;;10.75;8.95;;;19.70;99.90;;;;;;4987089;28;20213;-70
2023/06/20 04:30:12;;;;;;;9.57;8.57;;;19.70;99.90;;;;;;4987070;28;20197;-68
2023/06/20 04:32:42;;;;;;;9.60;8.60;;;19.70;99.90;;;;;;4988820;28;20194;-70
2023/06/20 04:35:12;;;;;;;10.55;8.85;;;19.70;99.90;;;;;;4987302;28;20228;-70
2023/06/20 04:37:40;;;;;;;13.02;9.65;;;19.70;99.90;;;;;;4978335;28;20681;-70
2023/06/20 04:40:11;;;;;;;10.77;9.02;;;19.70;99.90;;;;;;4971254;28;20248;-69
2023/06/20 04:42:38;;;;;;;10.50;9.40;;;19.70;99.90;;;;;;4987942;28;20225;-69
2023/06/20 04:45:05;;;;;;;12.15;9.82;;;19.70;99.90;;;;;;4987109;28;20205;-71
2023/06/20 04:47:33;;;;;;;9.13;8.23;;;19.90;99.90;;;;;;4987366;28;20226;-68
2023/06/20 04:50:02;;;;;;;14.80;9.30;;;19.90;99.90;;;;;;4971059;28;20193;-67
2023/06/20 04:52:30;;;;;;;11.75;8.55;;;19.90;99.90;;;;;;4987255;28;20216;-68
2023/06/20 04:55:03;;;;;;;9.65;8.65;;;19.90;99.90;;;;;;4985208;28;20360;-68
2023/06/20 04:57:31;;;;;;;9.25;7.80;;;20.00;99.90;;;;;;4987081;28;20201;-68
2023/06/20 04:59:58;;;;;;;8.55;7.70;;;20.20;99.90;;;;;;4984563;28;20560;-69
2023/06/20 05:02:26;;;;;;;8.70;7.63;;;20.30;99.90;;;;;;4987407;28;20323;-68
2023/06/20 05:04:54;;;;;;;8.70;7.80;;;20.30;99.90;;;;;;4982729;28;20190;-69
2023/06/20 05:07:24;;;;;;;11.02;8.02;;;20.40;99.90;;;;;;4986344;28;20221;-69
2023/06/20 05:09:52;;;;;;;10.13;8.32;;;20.50;99.90;;;;;;4983903;28;20696;-69
2023/06/20 05:12:19;;;;;;;8.93;8.02;;;20.70;99.90;;;;;;4986709;28;20561;-70
2023/06/20 05:14:46;;;;;;;7.90;7.15;;;20.70;99.90;;;;;;4980366;28;20193;-69
2023/06/20 05:17:13;;;;;;;8.20;7.35;;;20.90;99.90;;;;;;4985298;28;20193;-69
2023/06/20 05:19:40;;;;;;;8.60;7.07;;;21.00;99.90;;;;;;4986468;28;20236;-69
2023/06/20 05:22:07;;;;;;;8.15;7.35;;;21.10;99.90;;;;;;4983983;28;20205;-69
2023/06/20 05:24:34;;;;;;;8.60;7.63;;;21.40;99.90;;;;;;4984980;28;20189;-70
2023/06/20 05:27:01;;;;;;;10.45;7.82;;;21.50;99.90;;;;;;4984241;28;20221;-70
2023/06/20 05:29:28;;;;;;;8.65;7.40;;;21.60;99.90;;;;;;4985889;28;20331;-71
2023/06/20 05:31:55;;;;;;;10.32;6.55;;;22.40;99.90;;;;;;4978203;28;20590;-69
2023/06/20 05:34:22;;;;;;;7.35;6.32;;;22.50;99.90;;;;;;4984010;28;20182;-70
2023/06/20 05:36:49;;;;;;;6.85;5.95;;;23.00;99.90;;;;;;4982894;28;20209;-71
2023/06/20 05:39:16;;;;;;;6.95;6.25;;;23.10;99.90;;;;;;4977161;28;20193;-70
2023/06/20 05:41:47;;;;;;;6.82;6.05;;;23.00;99.90;;;;;;4984154;28;20799;-70
2023/06/20 05:44:13;;;;;;;7.47;5.78;;;22.90;99.90;;;;;;4985262;28;20244;-70
2023/06/20 05:46:41;;;;;;;6.22;5.63;;;22.90;99.90;;;;;;4984909;28;20764;-67
2023/06/20 05:49:11;;;;;;;7.05;6.07;;;22.90;99.90;;;;;;4983301;28;20198;-70
2023/06/20 05:51:40;;;;;;;7.22;6.45;;;22.30;99.90;;;;;;4986046;28;20273;-69
2023/06/20 05:54:07;;;;;;;8.98;6.80;;;21.90;99.90;;;;;;4978902;28;20190;-68
2023/06/20 05:56:34;;;;;;;7.25;6.15;;;22.20;99.90;;;;;;4983877;28;20677;-69
2023/06/20 05:59:01;;;;;;;6.75;6.10;;;22.10;99.90;;;;;;4981653;28;20233;-68
2023/06/20 06:01:28;;;;;;;7.43;6.53;;;21.80;99.90;;;;;;4985886;28;20201;-68
2023/06/20 06:03:55;;;;;;;7.70;6.45;;;21.70;99.90;;;;;;4939053;28;1156424;-68
2023/06/20 06:06:24;;;;;;;10.50;6.10;;;21.70;99.90;;;;;;4986223;28;20197;-68
2023/06/20 06:08:51;;;;;;;7.50;6.57;;;21.70;99.90;;;;;;4985000;28;20217;-70
2023/06/20 06:11:18;;;;;;;7.30;6.47;;;21.70;99.90;;;;;;4982283;28;20186;-74
2023/06/20 06:13:45;;;;;;;7.20;6.50;;;21.60;99.90;;;;;;4982406;28;20271;-62
2023/06/20 06:16:13;;;;;;;7.35;6.07;;;21.60;99.90;;;;;;4986496;28;20193;-63
2023/06/20 06:18:40;;;;;;;9.20;6.53;;;21.80;99.90;;;;;;4985608;28;20745;-63
2023/06/20 06:21:07;;;;;;;6.85;6.18;;;21.80;99.90;;;;;;4986350;28;20205;-62
2023/06/20 06:23:34;;;;;;;7.05;6.35;;;21.80;99.90;;;;;;4981866;28;20197;-62
2023/06/20 06:26:02;;;;;;;8.23;6.65;;;21.80;99.90;;;;;;4979674;28;20240;-62
2023/06/20 06:28:29;;;;;;;8.88;6.40;;;21.90;99.90;;;;;;4988926;28;20646;-62
2023/06/20 06:31:00;;;;;;;7.07;6.22;;;22.00;99.90;;;;;;4989000;28;20196;-63
2023/06/20 06:33:30;;;;;;;8.10;6.50;;;22.10;99.90;;;;;;4987415;28;20631;-62
2023/06/20 06:35:59;;;;;;;7.35;6.65;;;22.20;99.90;;;;;;4980916;28;20240;-65
2023/06/20 06:38:26;;;;;;;7.75;6.95;;;22.30;99.90;;;;;;4989389;28;20218;-63
2023/06/20 06:40:54;;;;;;;7.68;6.88;;;22.20;99.90;;;;;;4987212;28;20198;-63
2023/06/20 06:43:21;;;;;;;8.18;6.10;;;22.10;99.90;;;;;;4988865;28;20223;-63
2023/06/20 06:45:49;;;;;;;7.82;7.03;;;22.20;99.90;;;;;;4989619;28;20213;-61
2023/06/20 06:48:16;;;;;;;9.70;7.20;;;22.40;99.90;;;;;;4989738;28;20642;-62
2023/06/20 06:50:43;;;;;;;7.72;6.78;;;22.50;99.90;;;;;;4988024;28;20204;-63
2023/06/20 06:53:11;;;;;;;8.13;6.53;;;22.40;99.90;;;;;;4991234;28;20604;-63
2023/06/20 06:55:44;;;;;;;10.95;6.57;;;22.40;99.90;;;;;;4989878;28;20201;-63
2023/06/20 06:58:11;;;;;;;8.25;6.70;;;22.40;99.90;;;;;;4988456;28;20193;-63
2023/06/20 07:00:37;;;;;;;9.73;6.22;;;22.40;99.90;;;;;;4990070;28;20208;-63
2023/06/20 07:03:06;;;;;;;6.72;6.13;;;22.50;99.90;;;;;;4987896;28;20291;-69
2023/06/20 07:05:34;;;;;;;7.03;6.32;;;22.40;99.90;;;;;;4990729;28;20277;-68
2023/06/20 07:08:01;;;;;;;6.82;6.22;;;22.40;99.90;;;;;;4988045;28;20205;-68
2023/06/20 07:10:27;;;;;;;8.20;6.20;;;22.30;99.90;;;;;;4981609;28;20229;-69
2023/06/20 07:12:54;;;;;;;8.73;6.80;;;22.30;99.90;;;;;;4989829;28;20194;-69
2023/06/20 07:15:21;;;;;;;8.05;5.95;;;22.20;99.90;;;;;;4985384;28;20228;-68
2023/06/20 07:17:49;;;;;;;7.72;6.30;;;22.40;99.90;;;;;;4989562;28;20669;-63
2023/06/20 07:20:17;;;;;;;6.35;5.60;;;22.70;99.90;;;;;;4986935;28;20821;-62
2023/06/20 07:22:47;;;;;;;5.85;5.25;;;22.90;99.90;;;;;;4986371;28;20204;-63
2023/06/20 07:25:16;;;;;;;5.28;4.60;;;23.20;99.90;;;;;;4988734;28;20229;-63
2023/06/20 07:27:43;;;;;;;6.45;5.57;;;23.60;99.90;;;;;;4985971;28;20573;-68
2023/06/20 07:30:11;;;;;;;7.65;5.07;;;23.90;99.90;;;;;;4977966;28;20929;-67
2023/06/20 07:32:37;;;;;;;6.70;4.75;;;24.30;99.90;;;;;;4987464;28;20190;-70
2023/06/20 07:35:05;;;;;;;6.03;5.43;;;24.00;99.90;;;;;;4982361;28;20716;-70
2023/06/20 07:37:32;;;;;;;6.18;4.88;;;23.60;99.90;;;;;;4987519;28;20566;-70
2023/06/20 07:39:59;;;;;;;7.03;4.70;;;23.80;99.90;;;;;;4984865;28;20216;-69
2023/06/20 07:42:26;;;;;;;5.10;4.60;;;23.60;99.90;;;;;;4987591;28;20232;-70
2023/06/20 07:44:53;;;;;;;6.85;5.30;;;23.40;99.90;;;;;;4986436;28;20233;-70
2023/06/20 07:47:20;;;;;;;6.45;4.57;;;23.60;99.90;;;;;;4984037;28;20218;-69
2023/06/20 07:49:47;;;;;;;6.35;5.25;;;23.50;99.90;;;;;;4986125;28;20277;-70
2023/06/20 07:52:14;;;;;;;9.30;5.45;;;23.80;99.90;;;;;;4982004;28;20719;-71
2023/06/20 07:54:41;;;;;;;6.38;5.28;;;24.00;99.90;;;;;;4980101;28;20281;-71
2023/06/20 07:57:08;;;;;;;6.10;5.20;;;24.00;99.90;;;;;;4982625;28;20189;-70
2023/06/20 07:59:35;;;;;;;6.95;6.25;;;23.90;99.90;;;;;;4983483;28;20914;-70
2023/06/20 08:02:02;;;;;;;5.93;5.30;;;24.00;99.90;;;;;;4989129;28;20237;-71
2023/06/20 08:04:29;;;;;;;5.95;5.35;;;23.90;99.90;;;;;;4983513;28;20252;-70
2023/06/20 08:06:56;;;;;;;7.15;5.68;;;23.70;99.90;;;;;;4979836;28;20217;-72
2023/06/20 08:09:23;;;;;;;7.32;5.72;;;23.50;99.90;;;;;;4979995;28;20225;-72
2023/06/20 08:11:50;;;;;;;8.23;4.90;;;23.60;99.90;;;;;;4982250;28;20197;-71
2023/06/20 08:14:18;;;;;;;7.57;5.05;;;23.80;99.90;;;;;;4985158;28;20284;-72
2023/06/20 08:16:45;;;;;;;7.07;4.60;;;23.90;99.90;;;;;;4984377;28;20726;-73
2023/06/20 08:19:12;;;;;;;6.35;5.07;;;23.80;99.90;;;;;;4985854;28;20609;-72
2023/06/20 08:21:39;;;;;;;5.35;4.82;;;23.70;99.90;;;;;;4981890;28;20626;-73
2023/06/20 08:24:06;;;;;;;6.63;4.82;;;23.60;99.90;;;;;;4985023;28;20540;-71
2023/06/20 08:26:33;;;;;;;6.65;4.90;;;23.90;99.90;;;;;;4984012;28;20292;-73
2023/06/20 08:29:00;;;;;;;7.25;4.88;;;24.20;99.90;;;;;;4985836;28;20234;-73
2023/06/20 08:31:38;;;;;;;7.47;5.15;;;24.40;99.90;;;;;;4986624;28;20682;-73
2023/06/20 08:34:05;;;;;;;6.32;4.95;;;24.60;99.90;;;;;;4984099;28;20198;-72
2023/06/20 08:36:32;;;;;;;8.82;5.25;;;24.60;99.90;;;;;;4983759;28;20216;-72
2023/06/20 08:39:00;;;;;;;8.38;5.50;;;24.60;99.90;;;;;;4985149;28;20245;-72
2023/06/20 08:41:28;;;;;;;6.30;5.22;;;25.60;99.90;;;;;;4984391;28;20221;-71
2023/06/20 08:43:55;;;;;;;5.88;4.80;;;26.70;99.90;;;;;;4983704;28;20216;-70
2023/06/20 08:46:25;;;;;;;5.75;5.15;;;27.50;99.90;;;;;;4984338;28;20277;-69
2023/06/20 08:48:52;;;;;;;5.70;5.05;;;27.80;99.90;;;;;;4979769;28;20217;-69
2023/06/20 08:51:23;;;;;;;5.32;4.70;;;27.70;99.90;;;;;;4985720;28;20194;-72
2023/06/20 08:53:53;;;;;;;4.93;4.13;;;30.70;99.90;;;;;;4983954;28;20189;-72
2023/06/20 08:56:22;;;;;;;5.18;4.57;;;32.70;99.90;;;;;;4986368;28;20198;-70
2023/06/20 08:58:49;;;;;;;5.20;4.70;;;33.40;99.90;;;;;;4979062;28;20213;-69
2023/06/20 09:01:15;;;;;;;6.05;4.68;;;34.30;99.90;;;;;;4983309;28;20203;-69
2023/06/20 09:03:54;;;;;;;5.82;4.18;;;34.30;99.90;;;;;;4978222;28;20241;-70
2023/06/20 09:06:37;;;;;;;5.82;4.82;;;35.00;99.90;;;;;;4981255;28;20633;-69
2023/06/20 09:09:15;;;;;;;5.22;4.70;;;33.30;99.90;;;;;;4984419;28;20212;-72
2023/06/20 09:11:55;;;;;;;5.80;4.05;;;34.60;99.90;;;;;;4980696;28;20594;-73
2023/06/20 09:14:29;;;;;;;7.85;4.30;;;31.80;99.90;;;;;;4981741;28;20189;-72
2023/06/20 09:16:57;;;;;;;6.00;4.30;;;31.40;99.90;;;;;;4983806;28;20715;-69
2023/06/20 09:19:24;;;;;;;4.05;3.60;;;31.60;99.90;;;;;;4982162;28;20193;-69
2023/06/20 09:21:51;;;;;;;6.57;4.22;;;31.50;99.90;;;;;;4982574;28;20768;-69
2023/06/20 09:24:45;;;;;;;5.25;4.10;;;29.80;99.90;;;;;;4982664;28;20216;-69
2023/06/20 09:27:13;;;;;;;4.07;3.67;;;31.30;99.90;;;;;;4983957;28;20662;-72
2023/06/20 09:29:56;;;;;;;5.28;3.60;;;33.60;99.90;;;;;;4984564;28;20305;-73
2023/06/20 09:32:23;;;;;;;4.45;4.05;;;32.70;99.90;;;;;;4963533;28;20198;-73
2023/06/20 09:34:51;;;;;;;4.45;3.65;;;34.00;99.90;;;;;;4982099;28;20197;-73
2023/06/20 09:37:18;;;;;;;7.85;4.85;;;33.00;99.90;;;;;;4980359;28;20271;-72
2023/06/20 09:39:45;;;;;;;4.82;4.32;;;32.30;99.90;;;;;;4979133;28;20255;-65
2023/06/20 09:42:13;;;;;;;4.70;3.90;;;31.20;99.90;;;;;;4984211;28;20208;-68
2023/06/20 09:44:41;;;;;;;4.20;3.80;;;32.80;99.90;;;;;;4984185;28;20292;-68
2023/06/20 09:47:08;;;;;;;6.53;4.07;;;31.80;99.90;;;;;;4979806;28;20245;-70
2023/06/20 09:49:37;;;;;;;4.18;3.60;;;32.20;99.90;;;;;;4981416;28;20226;-68
2023/06/20 09:52:14;;;;;;;4.85;3.67;;;31.40;99.90;;;;;;4983246;28;20589;-68
2023/06/20 09:54:57;;;;;;;4.38;3.97;;;33.90;99.90;;;;;;4982118;28;20304;-68
2023/06/20 09:57:39;;;;;;;3.75;3.33;;;33.80;99.90;;;;;;4982412;28;20197;-72
2023/06/20 10:00:12;;;;;;;4.43;3.42;;;32.60;99.90;;;;;;4981784;28;20197;-72
2023/06/20 10:02:43;;;;;;;4.20;3.80;;;32.00;99.90;;;;;;4980925;28;20717;-72
2023/06/20 10:05:15;;;;;;;4.82;4.18;;;33.80;99.90;;;;;;4980435;28;20263;-72
2023/06/20 10:07:44;;;;;;;4.63;4.22;;;32.60;99.90;;;;;;4982187;28;20283;-72
2023/06/20 10:10:12;;;;;;;6.05;3.67;;;31.90;99.90;;;;;;4976755;28;20238;-72
2023/06/20 10:12:41;;;;;;;4.30;3.65;;;32.80;99.90;;;;;;4982720;28;20196;-72
2023/06/20 10:15:10;;;;;;;4.55;3.72;;;33.60;99.90;;;;;;4980280;28;20205;-72
2023/06/20 10:17:46;;;;;;;4.90;4.05;;;32.60;99.90;;;;;;4992282;28;20210;-73
2023/06/20 10:20:34;;;;;;;5.00;4.15;;;31.00;99.50;;;;;;4982327;28;20603;-71
2023/06/20 10:23:05;;;;;;;4.07;3.67;;;31.00;99.90;;;;;;4975856;28;20662;-72
2023/06/20 10:25:33;;;;;;;5.65;4.28;;;31.30;99.90;;;;;;4978217;28;20205;-71
2023/06/20 10:28:06;;;;;;;4.40;4.00;;;32.40;99.90;;;;;;4980798;28;20201;-72
2023/06/20 10:30:52;;;;;;;6.25;4.50;;;31.80;99.90;;;;;;4977402;28;20197;-72
2023/06/20 10:33:39;;;;;;;5.88;4.80;;;32.20;99.90;;;;;;4979964;28;20210;-72
2023/06/20 10:36:11;;;;;;;7.00;4.63;;;30.50;99.90;;;;;;4984356;28;20669;-72
2023/06/20 10:38:51;;;;;;;6.05;3.78;;;30.90;99.90;;;;;;4977979;28;20201;-72
2023/06/20 10:41:22;;;;;;;3.83;3.22;;;32.40;99.90;;;;;;4979051;28;20189;-73
2023/06/20 10:43:54;;;;;;;4.10;3.55;;;33.90;99.90;;;;;;4975550;28;20654;-73
2023/06/20 10:46:34;;;;;;;4.40;4.00;;;34.00;98.90;;;;;;4984442;28;20205;-73
2023/06/20 10:49:03;;;;;;;3.65;2.90;;;32.50;96.70;;;;;;4981879;28;20693;-75
2023/06/20 10:51:30;;;;;;;3.85;2.63;;;31.90;96.10;;;;;;4979122;28;20197;-73
2023/06/20 10:54:18;;;;;;;3.95;2.65;;;31.90;97.30;;;;;;4979502;28;20193;-72
2023/06/20 10:56:46;;;;;;;2.92;2.60;;;34.20;96.50;;;;;;4982281;28;20215;-72
2023/06/20 10:59:16;;;;;;;2.97;2.55;;;33.90;94.80;;;;;;4982701;28;20209;-73
2023/06/20 11:01:43;;;;;;;4.10;3.17;;;35.60;95.40;;;;;;4979408;28;20193;-72
2023/06/20 11:04:12;;;;;;;3.33;2.80;;;34.50;99.90;;;;;;4982014;28;20283;-74
2023/06/20 11:06:40;;;;;;;4.00;3.15;;;35.90;93.30;;;;;;4982379;28;20251;-72
2023/06/20 11:09:20;;;;;;;5.95;3.17;;;36.10;92.90;;;;;;4979181;28;21534;-73
2023/06/20 11:11:47;;;;;;;3.60;2.72;;;36.40;92.10;;;;;;4983033;28;20693;-73
2023/06/20 11:14:19;;;;;;;4.47;3.88;;;36.30;92.10;;;;;;4979977;28;20598;-68
2023/06/20 11:16:49;;;;;;;3.63;3.33;;;33.80;92.60;;;;;;4986687;28;20201;-70
2023/06/20 11:19:23;;;;;;;3.80;3.50;;;33.70;94.40;;;;;;4984371;28;20217;-72
2023/06/20 11:21:54;;;;;;;5.68;3.75;;;32.50;93.90;;;;;;4982011;28;20679;-72
2023/06/20 11:24:21;;;;;;;5.45;3.00;;;32.10;96.00;;;;;;4983539;28;20742;-74
2023/06/20 11:26:48;;;;;;;6.28;3.67;;;32.80;96.90;;;;;;4979787;28;20226;-73
2023/06/20 11:29:15;;;;;;;4.68;3.58;;;33.60;93.70;;;;;;4993725;28;20906;-74
2023/06/20 11:31:43;;;;;;;4.85;3.03;;;31.40;91.10;;;;;;4984356;28;20200;-73
2023/06/20 11:34:12;;;;;;;4.50;3.00;;;33.30;93.90;;;;;;4986931;28;20571;-72
2023/06/20 11:36:40;;;;;;;2.97;2.67;;;34.60;92.40;;;;;;4974827;28;20205;-70
2023/06/20 11:39:13;;;;;;;3.97;3.30;;;35.90;92.10;;;;;;4977724;28;20205;-67
2023/06/20 11:41:40;;;;;;;3.42;2.88;;;33.70;90.90;;;;;;4983991;28;20201;-69
2023/06/20 11:44:22;;;;;;;3.35;3.03;;;35.20;91.00;;;;;;4984126;28;20197;-69
2023/06/20 11:46:49;;;;;;;4.43;3.10;;;34.40;90.20;;;;;;4985875;28;20665;-68
2023/06/20 11:49:33;;;;;;;3.50;3.08;;;34.80;90.80;;;;;;4985972;28;20609;-74
2023/06/20 11:52:00;;;;;;;3.67;3.33;;;35.10;90.60;;;;;;4981397;28;20192;-71
2023/06/20 11:54:27;;;;;;;5.80;3.58;;;33.80;90.70;;;;;;4976812;28;20206;-72
2023/06/20 11:56:54;;;;;;;5.45;3.25;;;30.50;90.80;;;;;;4966509;28;20685;-73
2023/06/20 11:59:24;;;;;;;4.13;3.55;;;30.90;92.30;;;;;;4985985;28;20557;-72
2023/06/20 12:01:52;;;;;;;5.53;3.70;;;30.90;91.80;;;;;;4985241;28;20197;-73
2023/06/20 12:04:20;;;;;;;3.80;3.40;;;31.20;92.80;;;;;;4987768;28;20216;-72
2023/06/20 12:06:52;;;;;;;3.83;3.13;;;33.10;92.80;;;;;;4980971;28;20202;-72
2023/06/20 12:09:19;;;;;;;3.50;3.20;;;35.40;99.90;;;;;;4979106;28;20217;-72
2023/06/20 12:11:48;;;;;;;3.40;3.10;;;34.20;90.60;;;;;;4983449;28;20201;-72
2023/06/20 12:14:16;;;;;;;4.88;3.40;;;34.70;90.20;;;;;;4979829;28;20209;-72
2023/06/20 12:16:43;;;;;;;3.35;3.05;;;34.80;89.10;;;;;;4985361;28;20682;-72
2023/06/20 12:19:11;;;;;;;4.30;3.13;;;34.40;89.60;;;;;;4978914;28;20206;-72
2023/06/20 12:21:38;;;;;;;3.40;3.08;;;33.50;89.60;;;;;;4981418;28;20342;-72
2023/06/20 12:24:06;;;;;;;6.28;3.25;;;31.70;89.70;;;;;;4978835;28;20221;-72
2023/06/20 12:26:34;;;;;;;3.58;3.28;;;31.90;91.20;;;;;;4985134;28;20193;-72
2023/06/20 12:29:01;;;;;;;4.70;3.47;;;31.70;91.20;;;;;;4983679;28;20225;-72
2023/06/20 12:31:28;;;;;;;3.95;3.55;;;32.20;91.50;;;;;;4985632;28;20214;-73
2023/06/20 12:33:55;;;;;;;6.82;3.60;;;31.20;91.80;;;;;;4984080;28;20198;-73
2023/06/20 12:36:23;;;;;;;4.85;3.50;;;31.70;91.80;;;;;;4987741;28;20221;-72
2023/06/20 12:38:51;;;;;;;3.40;3.10;;;32.30;91.90;;;;;;4980361;28;20193;-72
2023/06/20 12:41:20;;;;;;;3.55;3.25;;;32.20;92.10;;;;;;4984585;28;20220;-75
2023/06/20 12:43:47;;;;;;;4.45;2.78;;;31.80;91.90;;;;;;4982698;28;20228;-74
2023/06/20 12:46:14;;;;;;;3.33;3.03;;;31.80;92.80;;;;;;4984822;28;20657;-73
2023/06/20 12:48:42;;;;;;;3.53;3.10;;;31.30;91.80;;;;;;4981793;28;20559;-74
2023/06/20 12:51:09;;;;;;;5.68;2.90;;;31.00;92.10;;;;;;4983602;28;20190;-73
2023/06/20 12:53:36;;;;;;;4.00;3.47;;;31.30;92.00;;;;;;4981580;28;20260;-73
2023/06/20 12:56:03;;;;;;;4.93;3.30;;;31.00;90.20;;;;;;4980929;28;20201;-73
2023/06/20 12:58:33;;;;;;;3.85;3.30;;;31.30;91.70;;;;;;4980971;28;20618;-70